createdAt,value
2022-11-02T00:00:14.409Z,99.99
2022-11-02T00:01:14.476Z,99.99
2022-11-02T00:02:14.473Z,99.99
2022-11-02T00:03:14.462Z,99.99
2022-11-02T00:04:14.348Z,99.99
2022-11-02T00:05:14.357Z,99.99
2022-11-02T00:06:14.336Z,99.99
2022-11-02T00:07:14.308Z,99.99
2022-11-02T00:08:14.314Z,99.99
2022-11-02T00:09:14.307Z,99.99
2022-11-02T00:10:14.323Z,99.99
2022-11-02T00:11:14.283Z,99.99
2022-11-02T00:12:14.269Z,99.99
2022-11-02T00:13:14.245Z,99.99
2022-11-02T00:14:14.270Z,99.99
2022-11-02T00:15:14.240Z,99.99
2022-11-02T00:16:14.225Z,99.99
2022-11-02T00:17:14.253Z,99.99
2022-11-02T00:18:14.210Z,99.99
2022-11-02T00:23:32.680Z,99.99
2022-11-02T00:23:37.874Z,99.99
2022-11-02T00:24:37.563Z,99.99
2022-11-02T00:25:37.581Z,99.99
2022-11-02T00:26:37.539Z,99.99
2022-11-02T00:27:37.554Z,99.99
2022-11-02T00:28:37.508Z,99.99
2022-11-02T00:29:37.521Z,99.99
2022-11-02T00:30:37.551Z,99.99
2022-11-02T00:31:37.494Z,99.99
2022-11-02T00:32:37.472Z,99.99
2022-11-02T00:33:37.529Z,99.99
2022-11-02T00:34:37.453Z,99.99
2022-11-02T00:35:37.487Z,99.99
2022-11-02T00:36:37.443Z,99.99
2022-11-02T00:37:37.436Z,99.99
2022-11-02T00:38:37.426Z,99.99
2022-11-02T00:39:37.430Z,99.99
2022-11-02T00:40:37.394Z,99.99
2022-11-02T00:41:37.377Z,99.99
2022-11-02T00:42:37.373Z,99.99
2022-11-02T00:43:37.403Z,99.99
2022-11-02T00:44:37.339Z,99.99
2022-11-02T00:45:37.322Z,99.99
2022-11-02T00:46:37.326Z,99.99
2022-11-02T00:47:37.311Z,99.99
2022-11-02T00:48:37.295Z,99.99
2022-11-02T00:49:37.295Z,99.99
2022-11-02T00:50:37.288Z,99.99
2022-11-02T00:51:37.282Z,99.99
2022-11-02T00:52:37.267Z,99.99
2022-11-02T00:53:37.258Z,99.99
2022-11-02T00:54:37.230Z,99.99
2022-11-02T00:55:37.221Z,99.99
2022-11-02T00:56:37.215Z,99.99
2022-11-02T00:57:37.197Z,99.99
2022-11-02T00:58:37.182Z,99.99
2022-11-02T00:59:37.170Z,99.99
2022-11-02T01:00:37.204Z,99.99
2022-11-02T01:01:37.343Z,99.99
2022-11-02T01:02:37.303Z,99.99
2022-11-02T01:03:37.120Z,99.99
2022-11-02T01:04:37.124Z,99.99
2022-11-02T01:05:37.133Z,99.99
2022-11-02T01:06:37.110Z,99.99
2022-11-02T01:07:37.100Z,99.99
2022-11-02T01:08:37.066Z,99.99
2022-11-02T01:09:37.089Z,99.99
2022-11-02T01:10:37.080Z,99.99
2022-11-02T01:11:37.045Z,99.99
2022-11-02T01:12:37.018Z,99.99
2022-11-02T01:13:37.032Z,99.99
2022-11-02T01:14:37.035Z,99.99
2022-11-02T01:15:37.049Z,99.99
2022-11-02T01:16:37.021Z,99.99
2022-11-02T01:17:36.970Z,99.99
2022-11-02T01:18:36.972Z,99.99
2022-11-02T01:19:36.951Z,99.99
2022-11-02T01:20:36.937Z,99.99
2022-11-02T01:21:36.951Z,99.99
2022-11-02T01:22:36.936Z,99.99
2022-11-02T01:23:36.941Z,99.99
2022-11-02T01:24:36.913Z,99.99
2022-11-02T01:25:36.884Z,99.99
2022-11-02T01:26:36.897Z,99.99
2022-11-02T01:27:44.872Z,99.99
2022-11-02T01:28:36.853Z,99.99
2022-11-02T01:29:36.837Z,99.99
2022-11-02T01:30:36.835Z,99.99
2022-11-02T01:31:36.848Z,99.99
2022-11-02T01:32:36.807Z,99.99
2022-11-02T01:33:36.795Z,99.99
2022-11-02T01:34:36.793Z,99.99
2022-11-02T01:35:36.825Z,99.99
2022-11-02T01:36:36.760Z,99.99
2022-11-02T01:37:36.757Z,99.99
2022-11-02T01:38:36.782Z,99.99
2022-11-02T01:39:36.722Z,99.99
2022-11-02T01:40:36.724Z,99.99
2022-11-02T01:41:36.723Z,99.99
2022-11-02T01:42:36.741Z,99.99
2022-11-02T01:43:36.690Z,99.99
2022-11-02T01:44:36.694Z,99.99
2022-11-02T01:45:36.665Z,99.99
2022-11-02T01:46:36.683Z,99.99
2022-11-02T01:47:36.643Z,99.99
2022-11-02T01:48:36.647Z,99.99
2022-11-02T01:49:36.624Z,99.99
2022-11-02T01:50:36.650Z,99.99
2022-11-02T01:51:36.616Z,99.99
2022-11-02T01:52:36.583Z,99.99
2022-11-02T01:53:36.574Z,99.99
2022-11-02T01:54:36.569Z,99.99
2022-11-02T01:55:36.580Z,99.99
2022-11-02T01:56:36.543Z,99.99
2022-11-02T01:57:36.570Z,99.99
2022-11-02T01:58:36.511Z,99.99
2022-11-02T01:59:36.515Z,99.99
2022-11-02T02:00:36.504Z,99.99
2022-11-02T02:01:36.607Z,99.99
2022-11-02T02:02:36.554Z,99.99
2022-11-02T02:03:36.481Z,99.99
2022-11-02T02:04:36.477Z,99.99
2022-11-02T02:05:36.435Z,99.99
2022-11-02T02:06:36.448Z,99.99
2022-11-02T02:07:36.428Z,99.99
2022-11-02T02:08:36.438Z,99.99
2022-11-02T02:09:36.416Z,99.99
2022-11-02T02:10:36.388Z,99.99
2022-11-02T02:11:36.373Z,99.99
2022-11-02T02:12:36.363Z,99.99
2022-11-02T02:13:36.379Z,99.99
2022-11-02T02:14:36.348Z,99.99
2022-11-02T02:15:36.331Z,99.99
2022-11-02T02:16:36.347Z,99.99
2022-11-02T02:17:36.311Z,99.99
2022-11-02T02:18:36.328Z,99.99
2022-11-02T02:19:36.305Z,99.99
2022-11-02T02:20:36.289Z,99.99
2022-11-02T02:21:36.269Z,99.99
2022-11-02T02:22:36.276Z,99.99
2022-11-02T02:23:36.287Z,99.99
2022-11-02T02:24:36.228Z,99.99
2022-11-02T02:25:36.225Z,99.99
2022-11-02T02:26:36.202Z,99.99
2022-11-02T02:27:36.221Z,99.99
2022-11-02T02:28:36.191Z,99.99
2022-11-02T02:29:36.206Z,99.99
2022-11-02T02:30:36.160Z,99.99
2022-11-02T02:31:36.157Z,99.99
2022-11-02T02:32:36.176Z,99.99
2022-11-02T02:33:36.136Z,99.99
2022-11-02T02:34:36.131Z,99.99
2022-11-02T02:35:36.108Z,99.99
2022-11-02T02:36:36.249Z,99.99
2022-11-02T02:37:36.369Z,99.99
2022-11-02T02:38:36.106Z,99.99
2022-11-02T02:39:36.075Z,99.99
2022-11-02T02:40:36.084Z,99.99
2022-11-02T02:41:36.035Z,99.99
2022-11-02T02:42:36.049Z,99.99
2022-11-02T02:43:36.027Z,99.99
2022-11-02T02:44:36.005Z,99.99
2022-11-02T02:45:35.992Z,99.99
2022-11-02T02:46:38.096Z,99.99
2022-11-02T02:47:35.999Z,99.99
2022-11-02T02:48:35.971Z,99.99
2022-11-02T02:49:35.947Z,99.99
2022-11-02T02:50:35.950Z,99.99
2022-11-02T02:51:35.935Z,99.99
2022-11-02T02:52:35.958Z,99.99
2022-11-02T02:53:35.933Z,99.99
2022-11-02T02:54:35.887Z,99.99
2022-11-02T02:55:35.885Z,99.99
2022-11-02T02:56:35.902Z,99.99
2022-11-02T02:57:35.908Z,99.99
2022-11-02T02:58:35.880Z,99.99
2022-11-02T02:59:35.867Z,99.99
2022-11-02T03:00:35.832Z,99.99
2022-11-02T03:01:36.142Z,99.99
2022-11-02T03:02:35.925Z,99.99
2022-11-02T03:03:35.789Z,99.99
2022-11-02T03:04:35.799Z,99.99
2022-11-02T03:05:35.776Z,99.99
2022-11-02T03:06:35.789Z,99.99
2022-11-02T03:07:35.749Z,99.99
2022-11-02T03:08:35.794Z,99.99
2022-11-02T03:09:35.756Z,99.99
2022-11-02T03:10:35.747Z,99.99
2022-11-02T03:11:35.728Z,99.99
2022-11-02T03:12:35.689Z,99.99
2022-11-02T03:13:35.678Z,99.99
2022-11-02T03:14:35.729Z,99.99
2022-11-02T03:15:35.656Z,99.99
2022-11-02T03:16:35.676Z,99.99
2022-11-02T03:17:35.662Z,99.99
2022-11-02T03:18:35.635Z,99.99
2022-11-02T03:19:35.629Z,99.99
2022-11-02T03:20:35.623Z,99.99
2022-11-02T03:21:35.601Z,99.99
2022-11-02T03:22:35.644Z,99.99
2022-11-02T03:23:35.574Z,99.99
2022-11-02T03:24:35.589Z,99.99
2022-11-02T03:25:35.612Z,99.99
2022-11-02T03:26:35.554Z,99.99
2022-11-02T03:27:35.559Z,99.99
2022-11-02T03:28:35.557Z,99.99
2022-11-02T03:29:35.512Z,99.99
2022-11-02T03:30:35.502Z,99.99
2022-11-02T03:31:35.602Z,99.99
2022-11-02T03:32:35.488Z,99.99
2022-11-02T03:33:35.488Z,99.99
2022-11-02T03:34:35.461Z,99.99
2022-11-02T03:35:35.451Z,99.99
2022-11-02T03:36:35.558Z,99.99
2022-11-02T03:37:35.443Z,99.99
2022-11-02T03:38:35.433Z,99.99
2022-11-02T03:39:35.413Z,99.99
2022-11-02T03:40:35.433Z,99.99
2022-11-02T03:41:35.459Z,99.99
2022-11-02T03:42:35.379Z,99.99
2022-11-02T03:43:35.433Z,99.99
2022-11-02T03:44:35.349Z,99.99
2022-11-02T03:45:35.372Z,99.99
2022-11-02T03:46:35.403Z,99.99
2022-11-02T03:47:35.322Z,99.99
2022-11-02T03:48:35.309Z,99.99
2022-11-02T03:49:35.310Z,99.99
2022-11-02T03:50:35.296Z,99.99
2022-11-02T03:51:35.352Z,99.99
2022-11-02T03:52:35.278Z,99.99
2022-11-02T03:53:35.270Z,99.99
2022-11-02T03:54:35.230Z,99.99
2022-11-02T03:55:35.250Z,99.99
2022-11-02T03:56:35.311Z,99.99
2022-11-02T03:57:35.203Z,99.99
2022-11-02T03:58:35.278Z,99.99
2022-11-02T03:59:35.183Z,99.99
2022-11-02T04:00:35.165Z,99.99
2022-11-02T04:01:35.493Z,99.99
2022-11-02T04:02:35.260Z,99.99
2022-11-02T04:03:35.155Z,99.99
2022-11-02T04:04:35.174Z,99.99
2022-11-02T04:05:35.113Z,99.99
2022-11-02T04:06:35.215Z,99.99
2022-11-02T04:07:35.078Z,99.99
2022-11-02T04:08:35.060Z,99.99
2022-11-02T04:09:35.101Z,99.99
2022-11-02T04:10:35.103Z,99.99
2022-11-02T04:11:35.166Z,99.99
2022-11-02T04:12:35.092Z,99.99
2022-11-02T04:13:35.049Z,99.99
2022-11-02T04:14:35.038Z,99.99
2022-11-02T04:15:35.004Z,99.99
2022-11-02T04:16:35.064Z,99.99
2022-11-02T04:17:34.997Z,99.99
2022-11-02T04:18:34.985Z,99.99
2022-11-02T04:19:34.957Z,99.99
2022-11-02T04:20:34.953Z,99.99
2022-11-02T04:21:34.961Z,99.99
2022-11-02T04:22:34.957Z,99.99
2022-11-02T04:23:34.915Z,99.99
2022-11-02T04:24:34.894Z,99.99
2022-11-02T04:25:34.901Z,99.99
2022-11-02T04:26:34.985Z,99.99
2022-11-02T04:27:34.919Z,99.99
2022-11-02T04:28:34.884Z,99.99
2022-11-02T04:29:34.865Z,99.99
2022-11-02T04:30:34.842Z,99.99
2022-11-02T04:31:34.832Z,99.99
2022-11-02T04:32:34.852Z,99.99
2022-11-02T04:33:34.860Z,99.99
2022-11-02T04:34:34.789Z,99.99
2022-11-02T04:35:34.781Z,99.99
2022-11-02T04:36:34.767Z,99.99
2022-11-02T04:37:34.767Z,99.99
2022-11-02T04:38:34.776Z,99.99
2022-11-02T04:39:34.752Z,99.99
2022-11-02T04:40:34.733Z,99.99
2022-11-02T04:41:34.733Z,99.99
2022-11-02T04:42:34.727Z,99.99
2022-11-02T04:43:34.722Z,99.99
2022-11-02T04:44:34.693Z,99.99
2022-11-02T04:45:34.716Z,99.99
2022-11-02T04:46:34.669Z,99.99
2022-11-02T04:47:34.655Z,99.99
2022-11-02T04:48:34.628Z,99.99
2022-11-02T04:49:34.640Z,99.99
2022-11-02T04:50:34.649Z,99.99
2022-11-02T04:51:34.615Z,99.99
2022-11-02T04:52:34.631Z,99.99
2022-11-02T04:53:34.584Z,99.99
2022-11-02T04:54:34.567Z,99.99
2022-11-02T04:55:34.559Z,99.99
2022-11-02T04:56:34.568Z,99.99
2022-11-02T04:57:34.560Z,99.99
2022-11-02T04:58:34.529Z,99.99
2022-11-02T04:59:34.514Z,99.99
2022-11-02T05:00:34.506Z,99.99
2022-11-02T05:01:34.701Z,99.99
2022-11-02T05:02:34.591Z,99.99
2022-11-02T05:03:34.475Z,99.99
2022-11-02T05:04:34.501Z,99.99
2022-11-02T05:05:34.462Z,99.99
2022-11-02T05:06:34.450Z,99.99
2022-11-02T05:07:34.473Z,99.99
2022-11-02T05:08:34.424Z,99.99
2022-11-02T05:09:34.389Z,99.99
2022-11-02T05:10:34.394Z,99.99
2022-11-02T05:11:34.397Z,99.99
2022-11-02T05:12:34.398Z,99.99
2022-11-02T05:13:34.383Z,99.99
2022-11-02T05:14:34.346Z,99.99
2022-11-02T05:15:34.352Z,99.99
2022-11-02T05:16:34.322Z,99.99
2022-11-02T05:17:34.310Z,99.99
2022-11-02T05:18:34.325Z,99.99
2022-11-02T05:19:34.285Z,99.99
2022-11-02T05:20:34.288Z,99.99
2022-11-02T05:21:34.268Z,99.99
2022-11-02T05:22:34.287Z,99.99
2022-11-02T05:23:34.277Z,99.99
2022-11-02T05:24:34.245Z,99.99
2022-11-02T05:25:34.308Z,99.99
2022-11-02T05:26:34.225Z,99.99
2022-11-02T05:27:34.193Z,99.99
2022-11-02T05:28:34.223Z,99.99
2022-11-02T05:29:34.176Z,99.99
2022-11-02T05:30:34.166Z,99.99
2022-11-02T05:31:34.163Z,99.99
2022-11-02T05:32:34.151Z,99.99
2022-11-02T05:33:34.146Z,99.99
2022-11-02T05:34:34.126Z,99.99
2022-11-02T05:35:34.108Z,99.99
2022-11-02T05:36:34.093Z,99.99
2022-11-02T05:37:34.089Z,99.99
2022-11-02T05:38:34.144Z,99.99
2022-11-02T05:39:34.084Z,99.99
2022-11-02T05:40:34.058Z,99.99
2022-11-02T05:41:34.052Z,99.99
2022-11-02T05:42:34.045Z,99.99
2022-11-02T05:43:34.044Z,99.99
2022-11-02T05:44:34.007Z,99.99
2022-11-02T05:45:34.006Z,99.99
2022-11-02T05:46:33.993Z,99.99
2022-11-02T05:47:34.008Z,99.99
2022-11-02T05:48:33.992Z,99.99
2022-11-02T05:49:33.952Z,99.99
2022-11-02T05:50:33.974Z,99.99
2022-11-02T05:51:33.924Z,99.99
2022-11-02T05:52:33.960Z,99.99
2022-11-02T05:53:33.917Z,99.99
2022-11-02T05:54:33.917Z,99.99
2022-11-02T05:55:33.892Z,99.99
2022-11-02T05:56:33.905Z,99.99
2022-11-02T05:57:33.904Z,99.99
2022-11-02T05:58:33.877Z,99.99
2022-11-02T05:59:33.856Z,99.99
2022-11-02T06:00:33.822Z,99.99
2022-11-02T06:01:33.868Z,99.99
2022-11-02T06:02:33.890Z,99.99
2022-11-02T06:03:33.801Z,99.99
2022-11-02T06:04:33.802Z,99.99
2022-11-02T06:05:33.901Z,99.99
2022-11-02T06:06:34.613Z,99.99
2022-11-02T06:07:33.758Z,99.99
2022-11-02T06:08:33.758Z,99.99
2022-11-02T06:09:33.741Z,99.99
2022-11-02T06:10:33.729Z,99.99
2022-11-02T06:11:33.707Z,99.99
2022-11-02T06:12:33.698Z,99.99
2022-11-02T06:13:33.730Z,99.99
2022-11-02T06:14:33.671Z,99.99
2022-11-02T06:15:33.675Z,99.99
2022-11-02T06:16:33.656Z,99.99
2022-11-02T06:17:33.662Z,99.99
2022-11-02T06:18:33.660Z,99.99
2022-11-02T06:19:33.627Z,99.99
2022-11-02T06:20:33.606Z,99.99
2022-11-02T06:21:33.598Z,99.99
2022-11-02T06:22:33.620Z,99.99
2022-11-02T06:23:33.592Z,99.99
2022-11-02T06:24:33.636Z,99.99
2022-11-02T06:25:33.562Z,99.99
2022-11-02T06:26:33.573Z,99.99
2022-11-02T06:27:33.550Z,99.99
2022-11-02T06:28:33.515Z,99.99
2022-11-02T06:29:33.554Z,99.99
2022-11-02T06:30:33.521Z,99.99
2022-11-02T06:31:33.489Z,99.99
2022-11-02T06:32:33.509Z,99.99
2022-11-02T06:33:33.479Z,99.99
2022-11-02T06:34:33.489Z,99.99
2022-11-02T06:35:33.437Z,99.99
2022-11-02T06:36:33.454Z,99.99
2022-11-02T06:37:33.552Z,99.99
2022-11-02T06:38:33.418Z,99.99
2022-11-02T06:39:33.481Z,99.99
2022-11-02T06:40:33.389Z,99.99
2022-11-02T06:41:33.408Z,99.99
2022-11-02T06:42:36.997Z,99.99
2022-11-02T06:43:33.367Z,99.99
2022-11-02T06:44:33.382Z,99.99
2022-11-02T06:45:33.351Z,99.99
2022-11-02T06:46:33.359Z,99.99
2022-11-02T06:47:33.322Z,99.99
2022-11-02T06:48:35.656Z,99.99
2022-11-02T06:49:33.348Z,99.99
2022-11-02T06:50:33.319Z,99.99
2022-11-02T06:51:33.265Z,99.99
2022-11-02T06:52:33.265Z,99.99
2022-11-02T06:53:33.300Z,99.99
2022-11-02T06:54:33.313Z,99.99
2022-11-02T06:55:33.238Z,99.99
2022-11-02T06:56:33.218Z,99.99
2022-11-02T06:57:33.206Z,99.99
2022-11-02T06:58:33.207Z,99.99
2022-11-02T06:59:33.174Z,99.99
2022-11-02T07:00:33.308Z,99.99
2022-11-02T07:01:33.329Z,99.99
2022-11-02T07:02:33.267Z,99.99
2022-11-02T07:03:33.361Z,99.99
2022-11-02T07:04:33.119Z,99.99
2022-11-02T07:05:33.116Z,99.99
2022-11-02T07:06:33.398Z,99.99
2022-11-02T07:07:33.124Z,99.99
2022-11-02T07:08:33.085Z,99.99
2022-11-02T07:09:33.120Z,99.99
2022-11-02T07:10:33.063Z,99.99
2022-11-02T07:11:33.069Z,99.99
2022-11-02T07:12:33.072Z,99.99
2022-11-02T07:13:33.044Z,99.99
2022-11-02T07:14:33.011Z,99.99
2022-11-02T07:15:33.019Z,99.99
2022-11-02T07:16:33.024Z,99.99
2022-11-02T07:17:33.018Z,99.99
2022-11-02T07:18:33.010Z,99.99
2022-11-02T07:19:32.978Z,99.99
2022-11-02T07:20:32.953Z,99.99
2022-11-02T07:21:32.964Z,99.99
2022-11-02T07:22:32.926Z,99.99
2022-11-02T07:23:32.937Z,99.99
2022-11-02T07:24:32.967Z,99.99
2022-11-02T07:25:32.946Z,99.99
2022-11-02T07:26:32.896Z,99.99
2022-11-02T07:27:32.861Z,99.99
2022-11-02T07:28:32.918Z,99.99
2022-11-02T07:29:32.858Z,99.99
2022-11-02T07:30:32.844Z,99.99
2022-11-02T07:31:32.841Z,99.99
2022-11-02T07:32:32.835Z,99.99
2022-11-02T07:33:32.853Z,99.99
2022-11-02T07:34:32.811Z,99.99
2022-11-02T07:35:32.832Z,99.99
2022-11-02T07:36:32.772Z,99.99
2022-11-02T07:37:32.857Z,99.99
2022-11-02T07:38:33.398Z,99.99
2022-11-02T07:39:33.404Z,99.99
2022-11-02T07:40:32.734Z,99.99
2022-11-02T07:41:32.722Z,99.99
2022-11-02T07:42:32.726Z,99.99
2022-11-02T07:43:32.681Z,99.99
2022-11-02T07:44:32.745Z,99.99
2022-11-02T07:45:32.731Z,99.99
2022-11-02T07:46:32.652Z,99.99
2022-11-02T07:47:32.650Z,99.99
2022-11-02T07:48:32.644Z,99.99
2022-11-02T07:49:32.652Z,99.99
2022-11-02T07:50:32.638Z,99.99
2022-11-02T07:51:32.648Z,99.99
2022-11-02T07:52:32.595Z,99.99
2022-11-02T07:53:32.579Z,99.99
2022-11-02T07:54:32.583Z,99.99
2022-11-02T07:55:32.589Z,99.99
2022-11-02T07:56:32.577Z,99.99
2022-11-02T07:57:32.560Z,99.99
2022-11-02T07:58:32.537Z,99.99
2022-11-02T07:59:32.532Z,99.99
2022-11-02T08:00:32.520Z,99.99
2022-11-02T08:01:32.542Z,99.99
2022-11-02T08:02:32.545Z,99.99
2022-11-02T08:03:32.474Z,99.99
2022-11-02T08:04:32.614Z,99.99
2022-11-02T08:05:32.680Z,99.99
2022-11-02T08:06:32.506Z,99.99
2022-11-02T08:07:32.433Z,99.99
2022-11-02T08:08:32.440Z,99.99
2022-11-02T08:09:32.411Z,99.99
2022-11-02T08:10:35.486Z,99.99
2022-11-02T08:11:32.377Z,99.99
2022-11-02T08:12:32.407Z,99.99
2022-11-02T08:13:33.273Z,99.99
2022-11-02T08:14:32.348Z,99.99
2022-11-02T08:15:32.383Z,99.99
2022-11-02T08:16:32.332Z,99.99
2022-11-02T08:17:32.341Z,99.99
2022-11-02T08:18:32.298Z,99.99
2022-11-02T08:19:32.301Z,99.99
2022-11-02T08:20:32.314Z,99.99
2022-11-02T08:21:32.304Z,99.99
2022-11-02T08:22:32.273Z,99.99
2022-11-02T08:23:32.262Z,99.99
2022-11-02T08:24:32.257Z,99.99
2022-11-02T08:25:32.347Z,99.99
2022-11-02T08:26:32.234Z,99.99
2022-11-02T08:27:32.271Z,99.99
2022-11-02T08:28:32.242Z,99.99
2022-11-02T08:29:32.238Z,99.99
2022-11-02T08:30:32.194Z,99.99
2022-11-02T08:31:32.182Z,99.99
2022-11-02T08:32:32.177Z,99.99
2022-11-02T08:33:32.192Z,99.99
2022-11-02T08:34:32.166Z,99.99
2022-11-02T08:35:32.125Z,99.99
2022-11-02T08:36:32.259Z,99.99
2022-11-02T08:37:32.094Z,99.99
2022-11-02T08:38:32.073Z,99.99
2022-11-02T08:39:32.457Z,99.99
2022-11-02T08:40:32.077Z,99.99
2022-11-02T08:41:32.045Z,99.99
2022-11-02T08:42:32.067Z,99.99
2022-11-02T08:43:32.051Z,99.99
2022-11-02T08:44:32.083Z,99.99
2022-11-02T08:45:53.854Z,99.99
2022-11-02T08:46:32.049Z,99.99
2022-11-02T08:47:32.035Z,99.99
2022-11-02T08:48:31.982Z,99.99
2022-11-02T08:49:31.952Z,99.99
2022-11-02T08:50:32.037Z,99.99
2022-11-02T08:51:32.001Z,99.99
2022-11-02T08:52:33.766Z,99.99
2022-11-02T08:53:31.967Z,99.99
2022-11-02T08:54:31.927Z,99.99
2022-11-02T08:55:31.946Z,99.99
2022-11-02T08:56:31.898Z,99.99
2022-11-02T08:57:31.899Z,99.99
2022-11-02T08:58:31.953Z,99.99
2022-11-02T08:59:31.881Z,99.99
2022-11-02T09:00:31.835Z,99.99
2022-11-02T09:01:31.900Z,99.99
2022-11-02T09:02:31.938Z,99.99
2022-11-02T09:03:31.931Z,99.99
2022-11-02T09:04:31.833Z,99.99
2022-11-02T09:05:31.775Z,99.99
2022-11-02T09:06:32.346Z,99.99
2022-11-02T09:07:31.761Z,99.99
2022-11-02T09:08:31.800Z,99.99
2022-11-02T09:09:31.751Z,99.99
2022-11-02T09:10:31.751Z,99.99
2022-11-02T09:11:31.840Z,99.99
2022-11-02T09:12:31.731Z,99.99
2022-11-02T09:13:31.773Z,99.99
2022-11-02T09:14:31.707Z,99.99
2022-11-02T09:15:31.697Z,99.99
2022-11-02T09:16:31.685Z,99.99
2022-11-02T09:17:31.672Z,99.99
2022-11-02T09:18:31.661Z,99.99
2022-11-02T09:19:31.637Z,99.99
2022-11-02T09:20:31.636Z,99.99
2022-11-02T09:21:31.663Z,99.99
2022-11-02T09:22:31.608Z,99.99
2022-11-02T09:23:31.620Z,99.99
2022-11-02T09:24:31.602Z,99.99
2022-11-02T09:25:31.558Z,99.99
2022-11-02T09:26:31.583Z,99.99
2022-11-02T09:27:31.576Z,99.99
2022-11-02T09:28:31.541Z,99.99
2022-11-02T09:29:31.524Z,99.99
2022-11-02T09:30:31.559Z,99.99
2022-11-02T09:31:31.536Z,99.99
2022-11-02T09:32:31.485Z,99.99
2022-11-02T09:33:31.550Z,99.99
2022-11-02T09:34:31.466Z,99.99
2022-11-02T09:35:31.462Z,99.99
2022-11-02T09:36:31.454Z,99.99
2022-11-02T09:37:31.441Z,99.99
2022-11-02T09:38:31.460Z,99.99
2022-11-02T09:39:31.436Z,99.99
2022-11-02T09:40:31.416Z,99.99
2022-11-02T09:41:31.393Z,99.99
2022-11-02T09:42:31.395Z,99.99
2022-11-02T09:43:32.837Z,99.99
2022-11-02T09:44:31.362Z,99.99
2022-11-02T09:45:31.387Z,99.99
2022-11-02T09:46:31.338Z,99.99
2022-11-02T09:48:31.860Z,99.99
2022-11-02T09:49:31.295Z,99.99
2022-11-02T09:50:31.320Z,99.99
2022-11-02T09:51:31.283Z,99.99
2022-11-02T09:52:31.275Z,99.99
2022-11-02T09:53:31.338Z,99.99
2022-11-02T09:54:31.292Z,99.99
2022-11-02T09:55:31.255Z,99.99
2022-11-02T09:56:31.229Z,99.99
2022-11-02T09:57:31.226Z,99.99
2022-11-02T09:58:31.248Z,99.99
2022-11-02T09:59:31.281Z,99.99
2022-11-02T10:00:31.202Z,99.99
2022-11-02T10:01:31.243Z,99.99
2022-11-02T10:02:31.187Z,99.99
2022-11-02T10:03:31.179Z,99.99
2022-11-02T10:04:31.182Z,99.99
2022-11-02T10:05:31.127Z,99.99
2022-11-02T10:06:31.138Z,99.99
2022-11-02T10:07:31.130Z,99.99
2022-11-02T10:08:31.085Z,99.99
2022-11-02T10:09:31.086Z,99.99
2022-11-02T10:10:31.071Z,99.99
2022-11-02T10:11:31.191Z,99.99
2022-11-02T10:12:31.150Z,99.99
2022-11-02T10:13:31.035Z,99.99
2022-11-02T10:14:31.048Z,99.99
2022-11-02T10:15:31.181Z,99.99
2022-11-02T10:16:31.021Z,99.99
2022-11-02T10:17:31.019Z,99.99
2022-11-02T10:18:31.018Z,99.99
2022-11-02T10:19:30.994Z,99.99
2022-11-02T10:20:30.976Z,99.99
2022-11-02T10:21:30.963Z,99.99
2022-11-02T10:22:30.971Z,99.99
2022-11-02T10:23:30.943Z,99.99
2022-11-02T10:24:30.908Z,99.99
2022-11-02T10:25:30.918Z,99.99
2022-11-02T10:26:30.894Z,99.99
2022-11-02T10:27:30.947Z,99.99
2022-11-02T10:28:30.912Z,99.99
2022-11-02T10:29:30.871Z,99.99
2022-11-02T10:30:30.852Z,99.99
2022-11-02T10:31:30.911Z,99.99
2022-11-02T10:32:30.929Z,99.99
2022-11-02T10:33:30.819Z,99.99
2022-11-02T10:34:30.822Z,99.99
2022-11-02T10:35:41.259Z,99.99
2022-11-02T10:36:30.786Z,99.99
2022-11-02T10:37:30.810Z,99.99
2022-11-02T10:38:30.803Z,99.99
2022-11-02T10:39:30.762Z,99.99
2022-11-02T10:40:30.763Z,99.99
2022-11-02T10:41:30.734Z,99.99
2022-11-02T10:42:30.717Z,99.99
2022-11-02T10:43:30.710Z,99.99
2022-11-02T10:44:30.708Z,99.99
2022-11-02T10:45:30.714Z,99.99
2022-11-02T10:46:30.683Z,99.99
2022-11-02T10:47:30.683Z,99.99
2022-11-02T10:48:30.699Z,99.99
2022-11-02T10:49:30.650Z,99.99
2022-11-02T10:50:30.637Z,99.97
2022-11-02T10:51:30.618Z,99.99
2022-11-02T10:52:30.601Z,99.99
2022-11-02T10:53:46.434Z,99.87
2022-11-02T10:54:33.418Z,99.77
2022-11-02T10:55:30.611Z,99.77
2022-11-02T10:56:30.566Z,99.66
2022-11-02T10:57:30.556Z,99.56
2022-11-02T10:58:30.547Z,99.25
2022-11-02T10:59:30.645Z,99.21
2022-11-02T11:00:30.636Z,99.21
2022-11-02T11:01:30.657Z,99.00
2022-11-02T11:02:30.502Z,99.10
2022-11-02T11:03:30.494Z,98.90
2022-11-02T11:04:30.494Z,98.69
2022-11-02T11:05:30.470Z,98.90
2022-11-02T11:06:30.473Z,98.90
2022-11-02T11:07:30.446Z,98.59
2022-11-02T11:08:30.445Z,98.38
2022-11-02T11:09:30.437Z,98.69
2022-11-02T11:10:30.426Z,98.69
2022-11-02T11:11:30.397Z,98.49
2022-11-02T11:12:30.405Z,98.44
2022-11-02T11:16:30.367Z,97.92
2022-11-02T11:20:30.328Z,97.57
2022-11-02T11:21:30.300Z,97.16
2022-11-02T11:22:30.318Z,97.27
2022-11-02T11:23:30.262Z,97.37
2022-11-02T11:24:30.326Z,96.85
2022-11-02T11:25:30.233Z,97.16
2022-11-02T11:26:30.271Z,97.37
2022-11-02T11:27:30.240Z,96.85
2022-11-02T11:28:30.232Z,97.06
2022-11-02T11:29:30.201Z,97.06
2022-11-02T11:31:30.211Z,97.27
2022-11-02T11:32:30.957Z,97.47
2022-11-02T11:33:30.165Z,97.82
2022-11-02T11:34:30.161Z,97.72
2022-11-02T11:35:30.146Z,97.62
2022-11-02T11:36:30.155Z,97.72
2022-11-02T11:37:30.121Z,97.82
2022-11-02T11:38:30.112Z,97.92
2022-11-02T11:39:30.094Z,97.92
2022-11-02T11:40:30.065Z,98.13
2022-11-02T11:41:30.086Z,97.92
2022-11-02T11:42:30.101Z,98.13
2022-11-02T11:43:30.100Z,98.33
2022-11-02T11:44:30.070Z,98.33
2022-11-02T11:45:30.028Z,98.54
2022-11-02T11:46:30.029Z,98.13
2022-11-02T11:47:30.017Z,98.24
2022-11-02T11:48:30.065Z,98.33
2022-11-02T11:50:30.051Z,98.24
2022-11-02T11:51:29.978Z,98.03
2022-11-02T11:52:31.947Z,98.03
2022-11-02T11:53:29.930Z,97.92
2022-11-02T11:54:29.958Z,98.24
2022-11-02T11:55:29.925Z,98.13
2022-11-02T11:56:29.940Z,98.24
2022-11-02T11:57:30.016Z,98.24
2022-11-02T11:58:29.888Z,98.24
2022-11-02T11:59:29.870Z,98.13
2022-11-02T12:00:29.862Z,98.13
2022-11-02T12:01:29.918Z,98.33
2022-11-02T12:02:30.042Z,98.33
2022-11-02T12:03:29.833Z,98.24
2022-11-02T12:04:29.807Z,98.08
2022-11-02T12:05:29.852Z,97.88
2022-11-02T12:06:29.798Z,97.88
2022-11-02T12:07:29.794Z,97.67
2022-11-02T12:08:29.786Z,97.67
2022-11-02T12:09:29.769Z,97.27
2022-11-02T12:10:29.759Z,96.95
2022-11-02T12:11:29.765Z,97.16
2022-11-02T12:12:29.749Z,97.47
2022-11-02T12:13:29.714Z,97.27
2022-11-02T12:14:29.764Z,97.22
2022-11-02T12:15:29.702Z,97.12
2022-11-02T12:16:29.699Z,97.22
2022-11-02T12:17:29.671Z,96.70
2022-11-02T12:18:29.668Z,96.81
2022-11-02T12:19:31.316Z,96.70
2022-11-02T12:20:29.662Z,96.91
2022-11-02T12:21:29.653Z,96.60
2022-11-02T12:22:29.632Z,96.60
2022-11-02T12:23:29.603Z,96.50
2022-11-02T12:24:29.628Z,96.70
2022-11-02T12:25:29.630Z,96.70
2022-11-02T12:26:29.607Z,96.75
2022-11-02T12:27:29.562Z,97.06
2022-11-02T12:28:29.556Z,96.95
2022-11-02T12:29:29.552Z,97.27
2022-11-02T12:30:29.546Z,97.47
2022-11-02T12:31:29.534Z,97.67
2022-11-02T12:32:29.519Z,97.72
2022-11-02T12:33:29.548Z,97.88
2022-11-02T12:34:29.503Z,97.78
2022-11-02T12:35:32.030Z,97.78
2022-11-02T12:36:29.458Z,97.99
2022-11-02T12:37:40.483Z,98.08
2022-11-02T12:38:29.450Z,98.08
2022-11-02T12:39:29.630Z,98.08
2022-11-02T12:40:29.490Z,98.08
2022-11-02T12:41:29.412Z,97.88
2022-11-02T12:42:29.401Z,97.99
2022-11-02T12:43:29.384Z,97.99
2022-11-02T12:44:29.390Z,97.78
2022-11-02T12:45:33.182Z,97.88
2022-11-02T12:46:31.698Z,97.88
2022-11-02T12:47:29.370Z,97.88
2022-11-02T12:48:29.351Z,98.08
2022-11-02T12:49:32.180Z,97.99
2022-11-02T12:50:29.314Z,97.99
2022-11-02T12:51:29.301Z,97.88
2022-11-02T12:52:29.299Z,97.99
2022-11-02T12:53:29.280Z,97.67
2022-11-02T12:54:29.261Z,97.67
2022-11-02T12:55:33.049Z,97.67
2022-11-02T12:56:29.243Z,97.57
2022-11-02T12:57:29.248Z,97.78
2022-11-02T12:58:29.243Z,97.88
2022-11-02T12:59:29.195Z,97.78
2022-11-02T13:00:29.202Z,97.88
2022-11-02T13:01:29.388Z,97.88
2022-11-02T13:02:29.163Z,97.88
2022-11-02T13:03:29.207Z,97.88
2022-11-02T13:04:30.369Z,97.78